createdAt,value
2023-01-31T00:01:24.271Z,17.77
2023-01-31T00:03:58.521Z,20.67
2023-01-31T00:06:27.755Z,17.67
2023-01-31T00:08:55.238Z,16.57
2023-01-31T00:11:23.844Z,13.52
2023-01-31T00:13:51.436Z,11.00
2023-01-31T00:16:19.280Z,17.70
2023-01-31T00:18:46.085Z,16.00
2023-01-31T00:21:18.994Z,7.90
2023-01-31T00:23:47.361Z,14.10
2023-01-31T00:26:23.309Z,14.90
2023-01-31T00:28:51.341Z,14.63
2023-01-31T00:31:20.281Z,14.25
2023-01-31T00:33:49.920Z,16.97
2023-01-31T00:36:19.617Z,9.73
2023-01-31T00:38:52.413Z,16.25
2023-01-31T00:41:20.036Z,13.68
2023-01-31T00:43:46.648Z,15.73
2023-01-31T00:46:13.203Z,14.73
2023-01-31T00:48:40.057Z,17.52
2023-01-31T00:51:06.930Z,16.25
2023-01-31T00:53:33.495Z,17.48
2023-01-31T00:56:07.834Z,16.10
2023-01-31T00:58:36.742Z,15.27
2023-01-31T01:01:15.872Z,11.50
2023-01-31T01:03:44.804Z,17.73
2023-01-31T01:06:12.421Z,14.02
2023-01-31T01:08:42.714Z,17.17
2023-01-31T01:11:12.294Z,14.27
2023-01-31T01:13:39.601Z,11.50
2023-01-31T01:16:21.103Z,13.75
2023-01-31T01:18:49.270Z,10.82
2023-01-31T01:21:26.627Z,15.15
2023-01-31T01:23:56.517Z,17.57
2023-01-31T01:26:28.930Z,13.60
2023-01-31T01:28:57.304Z,21.00
2023-01-31T01:31:31.142Z,15.43
2023-01-31T01:33:59.681Z,14.73
2023-01-31T01:36:26.570Z,14.70
2023-01-31T01:38:53.832Z,22.98
2023-01-31T01:41:23.622Z,15.25
2023-01-31T01:43:54.403Z,15.15
2023-01-31T01:46:38.433Z,12.80
2023-01-31T01:49:27.700Z,14.00
2023-01-31T01:51:58.002Z,20.20
2023-01-31T01:54:30.939Z,15.95
2023-01-31T01:57:03.480Z,19.02
2023-01-31T01:59:45.729Z,20.33
2023-01-31T02:02:14.294Z,17.90
2023-01-31T02:04:43.961Z,14.15
2023-01-31T02:07:12.171Z,15.52
2023-01-31T02:09:41.597Z,16.50
2023-01-31T02:12:10.137Z,16.25
2023-01-31T02:14:36.799Z,18.00
2023-01-31T02:17:03.425Z,13.55
2023-01-31T02:19:48.819Z,16.30
2023-01-31T02:22:25.076Z,18.17
2023-01-31T02:25:07.988Z,15.25
2023-01-31T02:28:00.708Z,13.87
2023-01-31T02:30:55.364Z,14.32
2023-01-31T02:33:39.557Z,16.75
2023-01-31T02:36:21.335Z,10.73
2023-01-31T02:39:06.555Z,11.25
2023-01-31T02:41:45.878Z,12.27
2023-01-31T02:45:01.711Z,12.68
2023-01-31T02:47:55.217Z,15.15
2023-01-31T02:50:35.712Z,10.93
2023-01-31T02:53:11.048Z,10.80
2023-01-31T02:56:01.607Z,16.00
2023-01-31T02:58:34.432Z,15.32
2023-01-31T03:01:04.137Z,12.00
2023-01-31T03:03:36.695Z,13.13
2023-01-31T03:06:09.765Z,14.82
2023-01-31T03:08:42.679Z,13.63
2023-01-31T03:11:10.775Z,14.55
2023-01-31T03:13:49.287Z,10.88
2023-01-31T03:16:43.778Z,8.23
2023-01-31T03:19:32.875Z,15.93
2023-01-31T03:22:07.312Z,12.37
2023-01-31T03:24:34.480Z,15.75
2023-01-31T03:27:04.711Z,14.05
2023-01-31T03:29:36.379Z,19.48
2023-01-31T03:32:11.791Z,15.25
2023-01-31T03:34:38.788Z,14.20
2023-01-31T03:37:20.068Z,11.13
2023-01-31T03:40:07.832Z,16.65
2023-01-31T03:42:59.325Z,13.80
2023-01-31T03:45:38.314Z,27.27
2023-01-31T03:48:14.368Z,22.97
2023-01-31T03:50:59.461Z,20.98
2023-01-31T03:53:39.027Z,15.35
2023-01-31T03:56:17.493Z,19.10
2023-01-31T03:58:50.870Z,25.50
2023-01-31T04:01:18.856Z,23.43
2023-01-31T04:03:51.923Z,23.85
2023-01-31T04:06:19.523Z,18.73
2023-01-31T04:08:46.052Z,16.92
2023-01-31T04:11:14.179Z,20.10
2023-01-31T04:13:42.055Z,23.63
2023-01-31T04:16:08.601Z,23.38
2023-01-31T04:18:37.733Z,22.60
2023-01-31T04:21:05.508Z,20.65
2023-01-31T04:23:32.279Z,23.83
2023-01-31T04:25:58.950Z,24.27
2023-01-31T04:28:25.459Z,19.13
2023-01-31T04:30:56.133Z,25.25
2023-01-31T04:33:23.395Z,30.77
2023-01-31T04:35:52.921Z,16.23
2023-01-31T04:38:19.462Z,22.53
2023-01-31T04:40:45.952Z,24.08
2023-01-31T04:43:12.462Z,28.55
2023-01-31T04:45:38.958Z,21.58
2023-01-31T04:48:05.906Z,25.35
2023-01-31T04:50:32.988Z,25.87
2023-01-31T04:52:59.682Z,25.10
2023-01-31T04:55:27.561Z,22.00
2023-01-31T04:57:54.183Z,29.35
2023-01-31T05:00:20.932Z,20.55
2023-01-31T05:02:47.470Z,19.40
2023-01-31T05:05:14.024Z,25.92
2023-01-31T05:07:40.637Z,23.98
2023-01-31T05:10:07.784Z,23.20
2023-01-31T05:12:34.344Z,21.13
2023-01-31T05:15:01.785Z,28.30
2023-01-31T05:17:29.960Z,26.40
2023-01-31T05:19:57.265Z,23.30
2023-01-31T05:22:24.370Z,28.17
2023-01-31T05:24:51.223Z,17.88
2023-01-31T05:27:19.320Z,25.90
2023-01-31T05:29:46.105Z,23.45
2023-01-31T05:32:13.435Z,25.38
2023-01-31T05:34:40.251Z,19.67
2023-01-31T05:37:07.207Z,27.02
2023-01-31T05:39:33.850Z,26.03
2023-01-31T05:42:00.387Z,32.92
2023-01-31T05:44:27.046Z,22.23
2023-01-31T05:46:53.622Z,26.52
2023-01-31T05:49:20.155Z,25.92
2023-01-31T05:51:46.629Z,27.00
2023-01-31T05:54:13.221Z,29.98
2023-01-31T05:56:39.821Z,22.63
2023-01-31T05:59:06.398Z,25.08
2023-01-31T06:01:33.436Z,25.63
2023-01-31T06:04:00.667Z,29.47
2023-01-31T06:06:27.315Z,38.33
2023-01-31T06:08:54.265Z,23.58
2023-01-31T06:11:20.991Z,24.98
2023-01-31T06:13:49.323Z,33.83
2023-01-31T06:16:15.930Z,23.50
2023-01-31T06:18:42.529Z,28.50
2023-01-31T06:21:09.068Z,29.52
2023-01-31T06:23:35.660Z,34.45
2023-01-31T06:26:02.198Z,35.65
2023-01-31T06:28:28.693Z,26.13
2023-01-31T06:30:55.648Z,33.20
2023-01-31T06:33:26.378Z,27.55
2023-01-31T06:36:01.369Z,29.90
2023-01-31T06:38:28.832Z,31.67
2023-01-31T06:40:55.483Z,26.37
2023-01-31T06:43:22.556Z,27.10
2023-01-31T06:45:49.503Z,27.10
2023-01-31T06:48:16.331Z,28.30
2023-01-31T06:50:44.514Z,22.77
2023-01-31T06:53:11.008Z,22.60
2023-01-31T06:55:38.850Z,29.80
2023-01-31T06:58:05.324Z,26.70
2023-01-31T07:00:31.989Z,27.58
2023-01-31T07:02:58.576Z,22.13
2023-01-31T07:05:25.046Z,26.80
2023-01-31T07:07:51.865Z,23.63
2023-01-31T07:10:18.390Z,23.00
2023-01-31T07:12:44.985Z,23.95
2023-01-31T07:15:11.730Z,29.75
2023-01-31T07:17:38.220Z,29.67
2023-01-31T07:20:05.158Z,22.67
2023-01-31T07:22:31.630Z,24.83
2023-01-31T07:24:58.125Z,24.10
2023-01-31T07:27:24.782Z,32.97
2023-01-31T07:29:51.546Z,21.87
2023-01-31T07:32:18.153Z,29.08
2023-01-31T07:34:44.676Z,21.05
2023-01-31T07:37:11.234Z,22.35
2023-01-31T07:39:37.814Z,22.70
2023-01-31T07:42:04.448Z,24.00
2023-01-31T07:44:31.008Z,22.85
2023-01-31T07:46:57.508Z,36.10
2023-01-31T07:49:23.979Z,19.92
2023-01-31T07:51:50.623Z,31.92
2023-01-31T07:54:17.127Z,26.13
2023-01-31T07:56:43.617Z,18.42
2023-01-31T07:59:10.245Z,30.52
2023-01-31T08:01:55.241Z,24.23
2023-01-31T08:04:22.891Z,20.98
2023-01-31T08:06:52.737Z,22.97
2023-01-31T08:09:19.667Z,31.13
2023-01-31T08:11:46.325Z,21.60
2023-01-31T08:14:12.813Z,24.58
2023-01-31T08:16:39.807Z,24.33
2023-01-31T08:19:06.300Z,26.70
2023-01-31T08:21:33.053Z,26.30
2023-01-31T08:23:59.654Z,19.38
2023-01-31T08:26:26.273Z,20.15
2023-01-31T08:28:56.118Z,22.98
2023-01-31T08:31:25.567Z,22.10
2023-01-31T08:33:53.364Z,23.13
2023-01-31T08:36:27.082Z,29.60
2023-01-31T08:38:54.849Z,25.52
2023-01-31T08:41:23.674Z,27.63
2023-01-31T08:43:58.955Z,27.47
2023-01-31T08:46:27.887Z,27.88
2023-01-31T08:48:54.947Z,29.58
2023-01-31T08:51:21.730Z,28.85
2023-01-31T08:53:48.272Z,25.30
2023-01-31T08:56:15.631Z,22.50
2023-01-31T08:58:44.956Z,27.80
2023-01-31T09:01:17.016Z,25.38
2023-01-31T09:03:45.422Z,26.90
2023-01-31T09:06:18.573Z,28.65
2023-01-31T09:08:45.267Z,29.57
2023-01-31T09:11:17.134Z,30.15
2023-01-31T09:13:44.251Z,36.55
2023-01-31T09:16:12.539Z,27.92
2023-01-31T09:18:40.037Z,23.25
2023-01-31T09:21:09.370Z,29.53
2023-01-31T09:23:36.559Z,28.35
2023-01-31T09:26:03.893Z,22.02
2023-01-31T09:28:30.986Z,26.55
2023-01-31T09:31:10.151Z,23.60
2023-01-31T09:33:37.151Z,20.77
2023-01-31T09:36:07.062Z,23.25
2023-01-31T09:38:34.711Z,26.05
2023-01-31T09:41:05.174Z,27.25
2023-01-31T09:43:40.107Z,21.70
2023-01-31T09:46:11.242Z,21.73
2023-01-31T09:48:42.389Z,24.25
2023-01-31T09:51:12.469Z,24.65
2023-01-31T09:53:41.234Z,20.40
2023-01-31T09:56:26.483Z,25.20
2023-01-31T09:59:01.845Z,25.30
2023-01-31T10:01:40.404Z,19.92
2023-01-31T10:04:40.954Z,25.55
2023-01-31T10:07:20.130Z,19.27
2023-01-31T10:09:53.707Z,21.77
2023-01-31T10:12:26.585Z,16.30
2023-01-31T10:14:58.181Z,20.63
2023-01-31T10:17:42.938Z,18.63
2023-01-31T10:20:23.539Z,17.48
2023-01-31T10:23:04.247Z,22.17
2023-01-31T10:25:39.671Z,16.23
2023-01-31T10:28:15.343Z,16.85
2023-01-31T10:30:46.288Z,20.33
2023-01-31T10:33:47.846Z,20.00
2023-01-31T10:36:42.513Z,15.82
2023-01-31T10:39:53.255Z,21.13
2023-01-31T10:42:26.888Z,19.38
2023-01-31T10:45:08.348Z,19.35
2023-01-31T10:47:41.578Z,20.65
2023-01-31T10:50:25.183Z,20.75
2023-01-31T10:53:24.358Z,28.43
2023-01-31T10:56:45.496Z,21.73
2023-01-31T10:59:21.637Z,19.55
2023-01-31T11:01:48.255Z,25.40
2023-01-31T11:04:29.376Z,19.00
2023-01-31T11:06:59.685Z,24.00
2023-01-31T11:09:30.851Z,20.73
2023-01-31T11:12:02.863Z,21.95
2023-01-31T11:14:32.079Z,25.50
2023-01-31T11:17:06.893Z,22.00
2023-01-31T11:19:38.774Z,21.87
2023-01-31T11:22:06.726Z,25.65
2023-01-31T11:24:37.525Z,25.30
2023-01-31T11:27:14.891Z,17.15
2023-01-31T11:29:47.295Z,24.00
2023-01-31T11:32:20.328Z,18.33
2023-01-31T11:35:18.968Z,20.73
2023-01-31T11:37:59.990Z,24.20
2023-01-31T11:40:29.748Z,19.55
2023-01-31T11:42:58.993Z,23.05
2023-01-31T11:45:31.545Z,25.70
2023-01-31T11:48:05.505Z,24.77
2023-01-31T11:50:43.171Z,23.65
2023-01-31T11:53:20.020Z,23.48
2023-01-31T11:55:48.368Z,24.08
2023-01-31T11:58:23.078Z,28.87
2023-01-31T12:00:58.321Z,22.10
2023-01-31T12:03:25.852Z,24.15
2023-01-31T12:06:09.645Z,21.55
2023-01-31T12:08:37.970Z,18.42
2023-01-31T12:11:19.780Z,16.70
2023-01-31T12:13:52.641Z,21.80
2023-01-31T12:16:25.637Z,18.77
2023-01-31T12:19:13.881Z,18.00
2023-01-31T12:21:47.563Z,18.00
2023-01-31T12:24:30.743Z,19.83
2023-01-31T12:27:20.897Z,18.48
2023-01-31T12:29:58.150Z,20.00
2023-01-31T12:32:50.588Z,16.83
2023-01-31T12:35:23.804Z,17.38
2023-01-31T12:38:18.654Z,22.27
2023-01-31T12:41:14.635Z,15.00
2023-01-31T12:43:54.397Z,16.05
2023-01-31T12:46:29.935Z,19.48
2023-01-31T12:49:21.242Z,13.98
2023-01-31T12:52:00.901Z,17.43
2023-01-31T12:55:05.188Z,16.40
2023-01-31T12:58:08.538Z,18.80
2023-01-31T13:00:35.104Z,15.77
2023-01-31T13:03:29.522Z,19.60
2023-01-31T13:05:57.901Z,18.97
2023-01-31T13:08:30.276Z,20.23
2023-01-31T13:11:26.254Z,15.45
2023-01-31T13:14:00.311Z,18.63
2023-01-31T13:16:33.677Z,15.55
2023-01-31T13:19:06.238Z,16.97
2023-01-31T13:21:40.576Z,14.32
2023-01-31T13:24:13.506Z,17.05
2023-01-31T13:26:47.161Z,22.85
2023-01-31T13:29:20.640Z,15.27
2023-01-31T13:31:54.019Z,20.07
2023-01-31T13:34:29.293Z,19.38
2023-01-31T13:37:01.209Z,15.15
2023-01-31T13:39:33.280Z,15.18
2023-01-31T13:41:59.811Z,13.63
2023-01-31T13:44:26.301Z,10.17
2023-01-31T13:46:58.588Z,18.92
2023-01-31T13:49:29.572Z,10.55
2023-01-31T13:51:58.990Z,12.80
2023-01-31T13:54:31.145Z,16.13
2023-01-31T13:57:00.177Z,13.30
2023-01-31T13:59:30.091Z,16.42
2023-01-31T14:02:00.037Z,18.88
2023-01-31T14:04:33.082Z,14.45
2023-01-31T14:07:09.563Z,12.95
2023-01-31T14:09:40.375Z,13.70
2023-01-31T14:12:09.793Z,18.98
2023-01-31T14:14:39.851Z,15.57
2023-01-31T14:17:12.379Z,16.27
2023-01-31T14:19:45.765Z,10.38
2023-01-31T14:25:45.518Z,12.15
2023-01-31T14:28:12.112Z,13.55
2023-01-31T14:30:41.504Z,8.65
2023-01-31T14:33:10.720Z,10.80
2023-01-31T14:36:00.388Z,10.37
2023-01-31T14:38:40.351Z,9.82
2023-01-31T14:41:28.834Z,8.35
2023-01-31T14:44:49.460Z,12.73
2023-01-31T14:47:46.883Z,12.20
2023-01-31T14:50:24.453Z,10.43
2023-01-31T14:53:10.564Z,12.13
2023-01-31T14:55:49.044Z,12.05
2023-01-31T14:58:22.110Z,11.85
2023-01-31T15:00:55.603Z,18.88
2023-01-31T15:03:31.615Z,9.27
2023-01-31T15:06:15.762Z,10.63
2023-01-31T15:08:45.957Z,11.60
2023-01-31T15:11:41.075Z,7.70
2023-01-31T15:14:36.110Z,14.18
2023-01-31T15:17:34.533Z,11.90
2023-01-31T15:20:23.047Z,10.18
2023-01-31T15:22:50.881Z,9.52
2023-01-31T15:25:33.672Z,12.27
2023-01-31T15:28:01.525Z,10.43
2023-01-31T15:30:30.010Z,11.73
2023-01-31T15:33:09.272Z,8.85
2023-01-31T15:35:52.006Z,8.93
2023-01-31T15:38:47.372Z,9.30
2023-01-31T15:41:38.697Z,11.60
2023-01-31T15:44:26.584Z,9.77
2023-01-31T15:46:55.251Z,12.55
2023-01-31T15:49:39.914Z,12.75
2023-01-31T15:52:21.346Z,9.85
2023-01-31T15:54:58.488Z,11.82
2023-01-31T15:57:28.931Z,15.00
2023-01-31T15:59:56.720Z,11.93
2023-01-31T16:02:29.324Z,14.25
2023-01-31T16:04:56.992Z,11.23
2023-01-31T16:07:28.626Z,8.32
2023-01-31T16:09:57.832Z,16.97
2023-01-31T16:12:26.032Z,16.25
2023-01-31T16:14:59.104Z,10.57
2023-01-31T16:17:29.486Z,17.15
2023-01-31T16:19:56.032Z,10.68
2023-01-31T16:22:28.788Z,10.90
2023-01-31T16:25:01.033Z,14.90
2023-01-31T16:27:31.302Z,14.73
2023-01-31T16:29:59.547Z,15.60
2023-01-31T16:32:29.594Z,11.15
2023-01-31T16:35:02.151Z,13.33
2023-01-31T16:37:33.166Z,12.75
2023-01-31T16:40:27.808Z,10.18
2023-01-31T16:43:19.233Z,11.45
2023-01-31T16:45:53.199Z,14.43
2023-01-31T16:48:24.733Z,14.17
2023-01-31T16:50:53.586Z,14.32
2023-01-31T16:53:25.544Z,18.65
2023-01-31T16:56:20.437Z,14.13
2023-01-31T16:58:58.581Z,13.50
2023-01-31T17:01:31.471Z,13.93
2023-01-31T17:04:15.688Z,15.27
2023-01-31T17:06:42.989Z,18.45
2023-01-31T17:09:15.917Z,15.77
2023-01-31T17:11:43.820Z,12.52
2023-01-31T17:14:11.108Z,13.23
2023-01-31T17:16:37.651Z,18.48
2023-01-31T17:19:04.249Z,14.63
2023-01-31T17:21:40.656Z,13.93
2023-01-31T17:24:13.512Z,17.38
2023-01-31T17:26:40.161Z,13.40
2023-01-31T17:29:06.894Z,11.85
2023-01-31T17:31:34.590Z,14.43
2023-01-31T17:34:01.713Z,18.85
2023-01-31T17:36:28.244Z,11.18
2023-01-31T17:38:54.840Z,17.83
2023-01-31T17:41:24.516Z,10.80
2023-01-31T17:43:51.188Z,13.93
2023-01-31T17:46:18.933Z,20.80
2023-01-31T17:48:45.452Z,18.52
2023-01-31T17:51:12.325Z,12.30
2023-01-31T17:53:47.851Z,13.38
2023-01-31T17:56:15.558Z,16.00
2023-01-31T17:58:42.028Z,22.63
2023-01-31T18:01:10.635Z,17.23
2023-01-31T18:03:37.314Z,15.10
2023-01-31T18:06:05.472Z,15.32
2023-01-31T18:08:32.401Z,19.50
2023-01-31T18:11:05.694Z,13.10
2023-01-31T18:13:32.486Z,14.18
2023-01-31T18:16:04.077Z,18.53
2023-01-31T18:18:30.836Z,17.23
2023-01-31T18:20:57.373Z,20.52
2023-01-31T18:23:23.894Z,17.00
2023-01-31T18:25:50.387Z,15.55
2023-01-31T18:28:17.017Z,15.93
2023-01-31T18:30:43.537Z,17.73
2023-01-31T18:33:10.010Z,19.90
2023-01-31T18:35:36.592Z,15.18
2023-01-31T18:38:06.591Z,19.30
2023-01-31T18:40:33.334Z,20.47
2023-01-31T18:42:59.984Z,17.95
2023-01-31T18:45:26.598Z,17.10
2023-01-31T18:47:53.114Z,16.00
2023-01-31T18:50:19.609Z,20.25
2023-01-31T18:52:47.311Z,19.87
2023-01-31T18:55:13.875Z,15.15
2023-01-31T18:57:40.414Z,20.25
2023-01-31T19:00:07.678Z,24.85
2023-01-31T19:02:34.266Z,19.60
2023-01-31T19:05:02.037Z,24.17
2023-01-31T19:07:28.612Z,19.60
2023-01-31T19:09:55.190Z,20.58
2023-01-31T19:12:21.785Z,15.93
2023-01-31T19:14:49.418Z,12.93
2023-01-31T19:17:17.163Z,15.97
2023-01-31T19:19:43.635Z,22.20
2023-01-31T19:22:10.752Z,25.30
2023-01-31T19:24:37.286Z,19.08
2023-01-31T19:27:03.795Z,13.27
2023-01-31T19:29:30.259Z,15.57
2023-01-31T19:31:56.907Z,15.98
2023-01-31T19:34:23.436Z,15.02
2023-01-31T19:36:49.999Z,17.33
2023-01-31T19:39:16.537Z,19.80
2023-01-31T19:41:43.070Z,16.77
2023-01-31T19:44:09.827Z,16.88
2023-01-31T19:46:37.011Z,15.85
2023-01-31T19:49:04.525Z,20.58
2023-01-31T19:51:31.270Z,19.45
2023-01-31T19:53:59.961Z,15.33
2023-01-31T19:56:27.215Z,19.42
2023-01-31T19:58:53.759Z,16.05
2023-01-31T20:01:20.433Z,21.33
2023-01-31T20:03:47.009Z,18.40
2023-01-31T20:06:16.322Z,16.67
2023-01-31T20:08:42.874Z,13.63
2023-01-31T20:11:10.555Z,24.27
2023-01-31T20:13:37.417Z,20.20
2023-01-31T20:16:06.819Z,21.15
2023-01-31T20:18:34.259Z,21.27
2023-01-31T20:21:01.021Z,17.80
2023-01-31T20:23:29.021Z,19.52
2023-01-31T20:25:56.127Z,16.42
2023-01-31T20:28:23.651Z,21.52
2023-01-31T20:30:50.490Z,16.83
2023-01-31T20:33:18.161Z,18.58
2023-01-31T20:35:45.215Z,15.90
2023-01-31T20:38:12.417Z,21.67
2023-01-31T20:40:38.977Z,22.92
2023-01-31T20:43:05.721Z,22.23
2023-01-31T20:45:32.772Z,20.73
2023-01-31T20:47:59.780Z,15.88
2023-01-31T20:50:27.357Z,15.02
2023-01-31T20:52:54.764Z,19.50
2023-01-31T20:55:21.469Z,12.60
2023-01-31T20:57:50.167Z,16.35
2023-01-31T21:00:21.210Z,15.32
2023-01-31T21:02:49.180Z,14.85
2023-01-31T21:05:17.093Z,18.27
2023-01-31T21:07:43.668Z,18.43
2023-01-31T21:10:11.217Z,16.80
2023-01-31T21:12:37.753Z,18.95
2023-01-31T21:15:05.165Z,22.55
2023-01-31T21:17:40.085Z,20.10
2023-01-31T21:20:10.701Z,22.07
2023-01-31T21:22:37.217Z,20.40
2023-01-31T21:25:03.972Z,19.95
2023-01-31T21:27:30.544Z,19.20
2023-01-31T21:29:57.087Z,19.80
2023-01-31T21:32:23.516Z,21.97
2023-01-31T21:34:50.089Z,16.25
2023-01-31T21:37:16.603Z,23.67
2023-01-31T21:39:43.173Z,17.13
2023-01-31T21:42:16.755Z,20.20
2023-01-31T21:44:44.245Z,14.27
2023-01-31T21:47:11.854Z,18.00
2023-01-31T21:49:38.785Z,23.25
2023-01-31T21:52:05.971Z,19.67
2023-01-31T21:54:33.512Z,12.45
2023-01-31T21:57:00.303Z,22.07
2023-01-31T21:59:26.853Z,15.35
2023-01-31T22:01:53.500Z,16.02
2023-01-31T22:04:21.076Z,13.00
2023-01-31T22:06:50.409Z,22.70
2023-01-31T22:09:17.585Z,15.23
2023-01-31T22:11:44.627Z,18.63
2023-01-31T22:14:13.549Z,17.05
2023-01-31T22:16:40.427Z,18.00
2023-01-31T22:19:07.380Z,19.83
2023-01-31T22:21:36.344Z,20.90
2023-01-31T22:24:05.181Z,17.48
2023-01-31T22:26:37.841Z,20.90
2023-01-31T22:29:07.371Z,21.05
2023-01-31T22:31:34.581Z,20.48
2023-01-31T22:34:01.626Z,18.80
2023-01-31T22:36:28.221Z,15.93
2023-01-31T22:38:54.795Z,14.60
2023-01-31T22:41:21.992Z,20.38
2023-01-31T22:43:49.845Z,20.92
2023-01-31T22:46:19.316Z,17.37
2023-01-31T22:48:49.211Z,17.15
2023-01-31T22:51:19.090Z,18.55
2023-01-31T22:53:45.611Z,14.50
2023-01-31T22:56:13.489Z,22.80
2023-01-31T22:58:40.452Z,15.80
2023-01-31T23:01:15.301Z,14.95
2023-01-31T23:03:42.458Z,15.25
2023-01-31T23:06:09.379Z,19.05
2023-01-31T23:08:35.939Z,18.27
2023-01-31T23:11:11.209Z,17.33
2023-01-31T23:13:38.118Z,19.20
2023-01-31T23:16:05.984Z,15.43
2023-01-31T23:18:32.998Z,23.08
2023-01-31T23:21:11.501Z,14.35
2023-01-31T23:23:38.134Z,14.77
2023-01-31T23:26:05.532Z,15.73
2023-01-31T23:28:32.175Z,15.98
2023-01-31T23:30:58.806Z,15.40
2023-01-31T23:33:25.404Z,17.73
2023-01-31T23:35:53.493Z,17.13
2023-01-31T23:38:20.102Z,15.25
2023-01-31T23:40:53.771Z,20.42
2023-01-31T23:43:21.427Z,12.38
2023-01-31T23:45:48.183Z,15.35
2023-01-31T23:48:14.980Z,17.07
2023-01-31T23:50:41.566Z,17.65
2023-01-31T23:53:08.233Z,21.00
2023-01-31T23:55:35.039Z,16.98
2023-01-31T23:58:01.576Z,18.67
